ANA1210 ROAH-RJFF
Flight info
| Callsign | ANA1210 |
|---|---|
| Flight time | 1h 19m |
| Altitude | 39000 |
| Route | AMAMI Y25 ISKUP |
| Aircraft | B772/H-SDE2E3FGHIJ5LORVWXY/LB1D1 |
Departure
| Time | 2026-04-25 06:55 |
|---|---|
| Airport | Naha International Airport (ROAH) |
Arrival
| Time | 2026-04-25 08:15 |
|---|---|
| Airport | Fukuoka Airport (RJFF) |
| Time | Latitude | Longitude | Altitude | Speed | Heading |
|---|---|---|---|---|---|
| 2026-04-25 06:28 | 26.20711 | 127.64919 | 19 ft | 0 kts | 26° |
| 2026-04-25 06:41 | 26.20710 | 127.64919 | 19 ft | 1 kts | 26° |
| 2026-04-25 06:41 | 26.20697 | 127.64912 | 19 ft | 2 kts | 26° |
| 2026-04-25 06:42 | 26.20684 | 127.64905 | 19 ft | 2 kts | 26° |
| 2026-04-25 06:42 | 26.20670 | 127.64897 | 19 ft | 2 kts | 26° |
| 2026-04-25 06:42 | 26.20656 | 127.64890 | 19 ft | 2 kts | 26° |
| 2026-04-25 06:42 | 26.20644 | 127.64881 | 19 ft | 2 kts | 49° |
| 2026-04-25 06:43 | 26.20636 | 127.64867 | 19 ft | 2 kts | 71° |
| 2026-04-25 06:43 | 26.20633 | 127.64851 | 19 ft | 2 kts | 90° |
| 2026-04-25 06:43 | 26.20633 | 127.64835 | 19 ft | 2 kts | 89° |
| 2026-04-25 06:43 | 26.20633 | 127.64819 | 19 ft | 2 kts | 94° |
| 2026-04-25 06:44 | 26.20635 | 127.64802 | 19 ft | 2 kts | 107° |
| 2026-04-25 06:44 | 26.20641 | 127.64787 | 19 ft | 2 kts | 117° |
| 2026-04-25 06:44 | 26.20648 | 127.64773 | 19 ft | 1 kts | 128° |
| 2026-04-25 06:44 | 26.20659 | 127.64761 | 19 ft | 2 kts | 139° |
| 2026-04-25 06:45 | 26.20670 | 127.64751 | 19 ft | 2 kts | 150° |
| 2026-04-25 06:45 | 26.20684 | 127.64744 | 19 ft | 2 kts | 160° |
| 2026-04-25 06:45 | 26.20698 | 127.64739 | 19 ft | 1 kts | 171° |
| 2026-04-25 06:45 | 26.20712 | 127.64738 | 19 ft | 2 kts | 179° |
| 2026-04-25 06:46 | 26.20727 | 127.64738 | 19 ft | 2 kts | 178° |
| 2026-04-25 06:46 | 26.20742 | 127.64737 | 19 ft | 2 kts | 178° |
| 2026-04-25 06:46 | 26.20746 | 127.64737 | 19 ft | 0 kts | 178° |
| 2026-04-25 06:48 | 26.20742 | 127.64737 | 19 ft | 1 kts | 178° |
| 2026-04-25 06:49 | 26.20737 | 127.64737 | 19 ft | 0 kts | 178° |
| 2026-04-25 06:49 | 26.20723 | 127.64738 | 18 ft | 3 kts | 178° |
| 2026-04-25 06:49 | 26.20685 | 127.64739 | 19 ft | 7 kts | 178° |
| 2026-04-25 06:49 | 26.20625 | 127.64742 | 18 ft | 10 kts | 178° |
| 2026-04-25 06:50 | 26.20547 | 127.64745 | 19 ft | 12 kts | 178° |
| 2026-04-25 06:50 | 26.20450 | 127.64750 | 18 ft | 15 kts | 178° |
| 2026-04-25 06:50 | 26.20338 | 127.64757 | 18 ft | 17 kts | 177° |
| 2026-04-25 06:50 | 26.20213 | 127.64763 | 18 ft | 19 kts | 178° |
| 2026-04-25 06:51 | 26.20070 | 127.64769 | 18 ft | 21 kts | 178° |
| 2026-04-25 06:51 | 26.19914 | 127.64777 | 18 ft | 22 kts | 178° |
| 2026-04-25 06:51 | 26.19751 | 127.64784 | 18 ft | 23 kts | 178° |
| 2026-04-25 06:51 | 26.19580 | 127.64793 | 18 ft | 24 kts | 178° |
| 2026-04-25 06:52 | 26.19403 | 127.64802 | 18 ft | 26 kts | 177° |
| 2026-04-25 06:52 | 26.19219 | 127.64809 | 18 ft | 27 kts | 179° |
| 2026-04-25 06:52 | 26.19024 | 127.64819 | 18 ft | 28 kts | 178° |
| 2026-04-25 06:52 | 26.18822 | 127.64828 | 18 ft | 29 kts | 177° |
| 2026-04-25 06:53 | 26.18634 | 127.64837 | 18 ft | 20 kts | 177° |
| 2026-04-25 06:53 | 26.18488 | 127.64844 | 18 ft | 21 kts | 176° |
| 2026-04-25 06:53 | 26.18343 | 127.64852 | 18 ft | 11 kts | 178° |
| 2026-04-25 06:53 | 26.18262 | 127.64829 | 18 ft | 13 kts | 225° |
| 2026-04-25 06:54 | 26.18240 | 127.64726 | 18 ft | 14 kts | 270° |
| 2026-04-25 06:54 | 26.18263 | 127.64655 | 18 ft | 9 kts | 336° |
| 2026-04-25 06:54 | 26.18341 | 127.64645 | 18 ft | 15 kts | 358° |
| 2026-04-25 06:54 | 26.18603 | 127.64634 | 18 ft | 66 kts | 357° |
| 2026-04-25 06:55 | 26.19293 | 127.64601 | 18 ft | 127 kts | 358° |
| 2026-04-25 06:55 | 26.20326 | 127.64542 | 106 ft | 162 kts | 356° |
| 2026-04-25 06:55 | 26.21427 | 127.64487 | 640 ft | 158 kts | 356° |
| 2026-04-25 06:55 | 26.22552 | 127.64442 | 1220 ft | 158 kts | 356° |
| 2026-04-25 06:56 | 26.23666 | 127.64394 | 1347 ft | 165 kts | 356° |
| 2026-04-25 06:56 | 26.24819 | 127.64342 | 1531 ft | 167 kts | 356° |
| 2026-04-25 06:56 | 26.25947 | 127.64048 | 1724 ft | 167 kts | 332° |
| 2026-04-25 06:56 | 26.26969 | 127.63412 | 1947 ft | 167 kts | 331° |
| 2026-04-25 06:57 | 26.27987 | 127.62772 | 2136 ft | 169 kts | 330° |
| 2026-04-25 06:57 | 26.29014 | 127.62125 | 2363 ft | 169 kts | 330° |
| 2026-04-25 06:57 | 26.30044 | 127.61476 | 2587 ft | 169 kts | 330° |
| 2026-04-25 06:57 | 26.31065 | 127.60833 | 2761 ft | 171 kts | 330° |
| 2026-04-25 06:58 | 26.32106 | 127.60176 | 2993 ft | 170 kts | 329° |
| 2026-04-25 06:58 | 26.33165 | 127.59507 | 3075 ft | 180 kts | 329° |
| 2026-04-25 06:58 | 26.34304 | 127.58786 | 3106 ft | 197 kts | 329° |
| 2026-04-25 06:58 | 26.35559 | 127.57991 | 3210 ft | 217 kts | 329° |
| 2026-04-25 06:59 | 26.36925 | 127.57125 | 3346 ft | 235 kts | 329° |
| 2026-04-25 06:59 | 26.38416 | 127.56180 | 3527 ft | 253 kts | 329° |
| 2026-04-25 06:59 | 26.39884 | 127.55105 | 3995 ft | 256 kts | 316° |
| 2026-04-25 06:59 | 26.40922 | 127.53487 | 4532 ft | 258 kts | 293° |
| 2026-04-25 07:00 | 26.41289 | 127.51537 | 5031 ft | 261 kts | 270° |
| 2026-04-25 07:00 | 26.40916 | 127.49600 | 5582 ft | 263 kts | 247° |
| 2026-04-25 07:00 | 26.39882 | 127.47897 | 6166 ft | 264 kts | 233° |
| 2026-04-25 07:00 | 26.38690 | 127.46362 | 6670 ft | 267 kts | 231° |
| 2026-04-25 07:01 | 26.37458 | 127.44797 | 7195 ft | 268 kts | 231° |
| 2026-04-25 07:01 | 26.36229 | 127.43228 | 7780 ft | 267 kts | 232° |
| 2026-04-25 07:01 | 26.34891 | 127.41803 | 8327 ft | 270 kts | 216° |
| 2026-04-25 07:01 | 26.33140 | 127.41033 | 8836 ft | 276 kts | 194° |
| 2026-04-25 07:02 | 26.31194 | 127.40892 | 9295 ft | 282 kts | 185° |
| 2026-04-25 07:02 | 26.29239 | 127.40904 | 9847 ft | 283 kts | 184° |
| 2026-04-25 07:02 | 26.27267 | 127.40932 | 10254 ft | 289 kts | 184° |
| 2026-04-25 07:02 | 26.25182 | 127.40953 | 10299 ft | 307 kts | 184° |
| 2026-04-25 07:03 | 26.22971 | 127.40984 | 10395 ft | 327 kts | 182° |
| 2026-04-25 07:03 | 26.20625 | 127.41314 | 10543 ft | 347 kts | 173° |
| 2026-04-25 07:03 | 26.18257 | 127.42106 | 10650 ft | 368 kts | 163° |
| 2026-04-25 07:03 | 26.15924 | 127.43432 | 10912 ft | 385 kts | 152° |
| 2026-04-25 07:04 | 26.13805 | 127.45291 | 11434 ft | 393 kts | 140° |
| 2026-04-25 07:04 | 26.12010 | 127.47624 | 12091 ft | 399 kts | 129° |
| 2026-04-25 07:04 | 26.10640 | 127.50302 | 12645 ft | 408 kts | 117° |
| 2026-04-25 07:04 | 26.09740 | 127.53318 | 13166 ft | 418 kts | 104° |
| 2026-04-25 07:05 | 26.09415 | 127.56557 | 13850 ft | 422 kts | 91° |
| 2026-04-25 07:05 | 26.09692 | 127.59815 | 14491 ft | 428 kts | 79° |
| 2026-04-25 07:05 | 26.10415 | 127.63034 | 15063 ft | 435 kts | 75° |
| 2026-04-25 07:05 | 26.11174 | 127.66295 | 15714 ft | 439 kts | 77° |
| 2026-04-25 07:06 | 26.11890 | 127.69579 | 16316 ft | 444 kts | 78° |
| 2026-04-25 07:06 | 26.12585 | 127.72934 | 16867 ft | 450 kts | 78° |
| 2026-04-25 07:06 | 26.13263 | 127.76345 | 17426 ft | 455 kts | 78° |
| 2026-04-25 07:06 | 26.13935 | 127.79817 | 17945 ft | 460 kts | 79° |
| 2026-04-25 07:07 | 26.14599 | 127.83315 | 18449 ft | 466 kts | 79° |
| 2026-04-25 07:07 | 26.15271 | 127.86835 | 19025 ft | 469 kts | 77° |
| 2026-04-25 07:07 | 26.16285 | 127.90292 | 19513 ft | 475 kts | 67° |
| 2026-04-25 07:07 | 26.17797 | 127.93574 | 19890 ft | 480 kts | 57° |
| 2026-04-25 07:08 | 26.19754 | 127.96555 | 20371 ft | 482 kts | 47° |
| 2026-04-25 07:08 | 26.22116 | 127.99178 | 20849 ft | 482 kts | 37° |
| 2026-04-25 07:08 | 26.24843 | 128.01382 | 21285 ft | 482 kts | 28° |
| 2026-04-25 07:08 | 26.27700 | 128.03281 | 21778 ft | 484 kts | 26° |
| 2026-04-25 07:09 | 26.30644 | 128.05211 | 22332 ft | 485 kts | 26° |
| 2026-04-25 07:09 | 26.33538 | 128.07124 | 22791 ft | 489 kts | 26° |
| 2026-04-25 07:09 | 26.36457 | 128.09065 | 23148 ft | 494 kts | 26° |
| 2026-04-25 07:09 | 26.39426 | 128.11050 | 23438 ft | 501 kts | 26° |
| 2026-04-25 07:10 | 26.42451 | 128.13083 | 23895 ft | 504 kts | 26° |
| 2026-04-25 07:10 | 26.45466 | 128.15115 | 24357 ft | 506 kts | 27° |
| 2026-04-25 07:10 | 26.48478 | 128.17149 | 24699 ft | 512 kts | 27° |
| 2026-04-25 07:10 | 26.51514 | 128.19205 | 25016 ft | 517 kts | 27° |
| 2026-04-25 07:11 | 26.54629 | 128.21315 | 25431 ft | 521 kts | 27° |
| 2026-04-25 07:11 | 26.57700 | 128.23401 | 25880 ft | 523 kts | 27° |
| 2026-04-25 07:11 | 26.60842 | 128.25536 | 26250 ft | 527 kts | 27° |
| 2026-04-25 07:11 | 26.64002 | 128.27686 | 26603 ft | 532 kts | 27° |
| 2026-04-25 07:12 | 26.67093 | 128.30022 | 26967 ft | 539 kts | 35° |
| 2026-04-25 07:12 | 26.72372 | 128.36055 | 27729 ft | 551 kts | 50° |
| 2026-04-25 07:12 | 26.74750 | 128.39388 | 28083 ft | 556 kts | 50° |
| 2026-04-25 07:13 | 26.77157 | 128.42786 | 28439 ft | 560 kts | 50° |
| 2026-04-25 07:13 | 26.79594 | 128.46230 | 28822 ft | 563 kts | 51° |
| 2026-04-25 07:13 | 26.82015 | 128.49648 | 29147 ft | 568 kts | 51° |
| 2026-04-25 07:13 | 26.84486 | 128.53139 | 29446 ft | 573 kts | 50° |
| 2026-04-25 07:14 | 26.86965 | 128.56641 | 29829 ft | 576 kts | 51° |
| 2026-04-25 07:14 | 26.89459 | 128.60161 | 30324 ft | 576 kts | 50° |
| 2026-04-25 07:14 | 26.92174 | 128.63467 | 30844 ft | 574 kts | 41° |
| 2026-04-25 07:14 | 26.95192 | 128.66307 | 31284 ft | 572 kts | 34° |
| 2026-04-25 07:15 | 26.98520 | 128.68706 | 31543 ft | 572 kts | 26° |
| 2026-04-25 07:15 | 27.02050 | 128.70883 | 31856 ft | 575 kts | 25° |
| 2026-04-25 07:15 | 27.05545 | 128.73000 | 32342 ft | 574 kts | 24° |
| 2026-04-25 07:15 | 27.09059 | 128.75125 | 32931 ft | 571 kts | 25° |
| 2026-04-25 07:16 | 27.12548 | 128.77239 | 33361 ft | 572 kts | 24° |
| 2026-04-25 07:16 | 27.16077 | 128.79379 | 33780 ft | 573 kts | 24° |
| 2026-04-25 07:16 | 27.19561 | 128.81494 | 34254 ft | 573 kts | 24° |
| 2026-04-25 07:16 | 27.23057 | 128.83620 | 34805 ft | 571 kts | 24° |
| 2026-04-25 07:17 | 27.26542 | 128.85742 | 35347 ft | 568 kts | 24° |
| 2026-04-25 07:17 | 27.30014 | 128.87857 | 35814 ft | 567 kts | 24° |
| 2026-04-25 07:17 | 27.33470 | 128.89963 | 36182 ft | 568 kts | 24° |
| 2026-04-25 07:17 | 27.36949 | 128.92085 | 36594 ft | 567 kts | 24° |
| 2026-04-25 07:18 | 27.40410 | 128.94199 | 36977 ft | 566 kts | 24° |
| 2026-04-25 07:18 | 27.43851 | 128.96301 | 37304 ft | 567 kts | 23° |
| 2026-04-25 07:18 | 27.47337 | 128.98431 | 37568 ft | 568 kts | 23° |
| 2026-04-25 07:18 | 27.50799 | 129.00551 | 37812 ft | 569 kts | 23° |
| 2026-04-25 07:19 | 27.54297 | 129.02693 | 38152 ft | 568 kts | 23° |
| 2026-04-25 07:19 | 27.57713 | 129.04788 | 38535 ft | 565 kts | 23° |
| 2026-04-25 07:19 | 27.61204 | 129.06929 | 38838 ft | 564 kts | 22° |
| 2026-04-25 07:19 | 27.64642 | 129.09039 | 39022 ft | 565 kts | 23° |
| 2026-04-25 07:20 | 27.71552 | 129.13284 | 39021 ft | 567 kts | 23° |
| 2026-04-25 07:20 | 27.78514 | 129.17567 | 39021 ft | 566 kts | 23° |
| 2026-04-25 07:21 | 27.85383 | 129.21802 | 39019 ft | 566 kts | 22° |
| 2026-04-25 07:21 | 27.92316 | 129.26080 | 39019 ft | 568 kts | 23° |
| 2026-04-25 07:22 | 27.99275 | 129.30382 | 39023 ft | 568 kts | 23° |
| 2026-04-25 07:22 | 28.06195 | 129.34665 | 39026 ft | 568 kts | 23° |
| 2026-04-25 07:23 | 28.13127 | 129.38963 | 39004 ft | 568 kts | 22° |
| 2026-04-25 07:23 | 28.20076 | 129.43277 | 39009 ft | 569 kts | 23° |
| 2026-04-25 07:24 | 28.27028 | 129.47600 | 39004 ft | 572 kts | 22° |
| 2026-04-25 07:24 | 28.33982 | 129.51932 | 39014 ft | 571 kts | 22° |
| 2026-04-25 07:25 | 28.40970 | 129.56229 | 39007 ft | 570 kts | 18° |
| 2026-04-25 07:25 | 28.48391 | 129.58992 | 39000 ft | 555 kts | 1° |
| 2026-04-25 07:26 | 28.56045 | 129.60228 | 39012 ft | 548 kts | 358° |
| 2026-04-25 07:26 | 28.63520 | 129.61351 | 39015 ft | 541 kts | 358° |
| 2026-04-25 07:27 | 28.71009 | 129.62477 | 39019 ft | 547 kts | 357° |
| 2026-04-25 07:27 | 28.78565 | 129.63621 | 39009 ft | 549 kts | 358° |
| 2026-04-25 07:28 | 28.86118 | 129.64772 | 39008 ft | 549 kts | 357° |
| 2026-04-25 07:28 | 28.93733 | 129.65936 | 38983 ft | 549 kts | 358° |
| 2026-04-25 07:29 | 29.01267 | 129.67090 | 38981 ft | 550 kts | 358° |
| 2026-04-25 07:29 | 29.08895 | 129.68259 | 38989 ft | 552 kts | 358° |
| 2026-04-25 07:30 | 29.16531 | 129.69432 | 38982 ft | 555 kts | 358° |
| 2026-04-25 07:30 | 29.24156 | 129.70607 | 38980 ft | 554 kts | 358° |
| 2026-04-25 07:31 | 29.31840 | 129.71793 | 38983 ft | 553 kts | 358° |
| 2026-04-25 07:31 | 29.39479 | 129.72974 | 38985 ft | 554 kts | 358° |
| 2026-04-25 07:32 | 29.47053 | 129.74147 | 38988 ft | 553 kts | 358° |
| 2026-04-25 07:32 | 29.54725 | 129.75336 | 38991 ft | 552 kts | 358° |
| 2026-04-25 07:33 | 29.62368 | 129.76521 | 38991 ft | 556 kts | 358° |
| 2026-04-25 07:33 | 29.70004 | 129.77708 | 38992 ft | 557 kts | 358° |
| 2026-04-25 07:34 | 29.77692 | 129.78909 | 38992 ft | 552 kts | 357° |
| 2026-04-25 07:34 | 29.85311 | 129.80096 | 38998 ft | 555 kts | 358° |
| 2026-04-25 07:35 | 29.92948 | 129.81290 | 38996 ft | 556 kts | 357° |
| 2026-04-25 07:35 | 30.00571 | 129.82484 | 38996 ft | 553 kts | 357° |
| 2026-04-25 07:36 | 30.08200 | 129.83369 | 39007 ft | 553 kts | 354° |
| 2026-04-25 07:36 | 30.15873 | 129.84166 | 38986 ft | 552 kts | 355° |
| 2026-04-25 07:37 | 30.23543 | 129.84978 | 38994 ft | 552 kts | 355° |
| 2026-04-25 07:37 | 30.31198 | 129.85794 | 39000 ft | 552 kts | 354° |
| 2026-04-25 07:38 | 30.38854 | 129.86618 | 39004 ft | 553 kts | 354° |
| 2026-04-25 07:38 | 30.46502 | 129.87445 | 39011 ft | 553 kts | 354° |
| 2026-04-25 07:39 | 30.54185 | 129.88280 | 39017 ft | 553 kts | 354° |
| 2026-04-25 07:39 | 30.61800 | 129.89108 | 39019 ft | 554 kts | 354° |
| 2026-04-25 07:40 | 30.69517 | 129.89952 | 39022 ft | 551 kts | 354° |
| 2026-04-25 07:40 | 30.77103 | 129.90782 | 39021 ft | 550 kts | 354° |
| 2026-04-25 07:41 | 30.84768 | 129.91618 | 39032 ft | 553 kts | 354° |
| 2026-04-25 07:41 | 30.92399 | 129.92459 | 39033 ft | 549 kts | 354° |
| 2026-04-25 07:42 | 31.00066 | 129.93300 | 39040 ft | 552 kts | 353° |
| 2026-04-25 07:42 | 31.07643 | 129.94136 | 39044 ft | 548 kts | 354° |
| 2026-04-25 07:43 | 31.15221 | 129.94971 | 39021 ft | 550 kts | 354° |
| 2026-04-25 07:43 | 31.22928 | 129.95818 | 39024 ft | 556 kts | 353° |
| 2026-04-25 07:44 | 31.30580 | 129.96655 | 39021 ft | 551 kts | 353° |
| 2026-04-25 07:44 | 31.38232 | 129.97258 | 39027 ft | 552 kts | 352° |
| 2026-04-25 07:45 | 31.45902 | 129.97847 | 39027 ft | 552 kts | 352° |
| 2026-04-25 07:45 | 31.53605 | 129.98447 | 39035 ft | 554 kts | 352° |
| 2026-04-25 07:46 | 31.61244 | 129.99051 | 39029 ft | 551 kts | 352° |
| 2026-04-25 07:46 | 31.68890 | 129.99657 | 39033 ft | 549 kts | 352° |
| 2026-04-25 07:47 | 31.76518 | 130.00261 | 39036 ft | 548 kts | 352° |
| 2026-04-25 07:47 | 31.84148 | 130.00867 | 39044 ft | 553 kts | 352° |
| 2026-04-25 07:48 | 31.91830 | 130.01482 | 39032 ft | 550 kts | 352° |
| 2026-04-25 07:48 | 31.99438 | 130.02092 | 39046 ft | 550 kts | 352° |
| 2026-04-25 07:49 | 32.07075 | 130.02704 | 39041 ft | 550 kts | 352° |
| 2026-04-25 07:49 | 32.14706 | 130.03319 | 39022 ft | 549 kts | 352° |
| 2026-04-25 07:50 | 32.22202 | 130.03923 | 38991 ft | 548 kts | 352° |
| 2026-04-25 07:50 | 32.26043 | 130.04237 | 38396 ft | 545 kts | 352° |
| 2026-04-25 07:50 | 32.29785 | 130.04535 | 37365 ft | 551 kts | 352° |
| 2026-04-25 07:51 | 32.33624 | 130.04842 | 36454 ft | 554 kts | 352° |
| 2026-04-25 07:51 | 32.37418 | 130.05148 | 35613 ft | 554 kts | 352° |
| 2026-04-25 07:51 | 32.41252 | 130.05460 | 34767 ft | 554 kts | 352° |
| 2026-04-25 07:51 | 32.45089 | 130.05771 | 33845 ft | 556 kts | 352° |
| 2026-04-25 07:52 | 32.48957 | 130.06084 | 32957 ft | 556 kts | 352° |
| 2026-04-25 07:52 | 32.52808 | 130.06396 | 32028 ft | 558 kts | 353° |
| 2026-04-25 07:52 | 32.56676 | 130.06705 | 31049 ft | 559 kts | 353° |
| 2026-04-25 07:52 | 32.60515 | 130.06650 | 30216 ft | 536 kts | 344° |
| 2026-04-25 07:53 | 32.64087 | 130.06038 | 29716 ft | 511 kts | 338° |
| 2026-04-25 07:53 | 32.67511 | 130.05211 | 29223 ft | 497 kts | 338° |
| 2026-04-25 07:53 | 32.70849 | 130.04379 | 28570 ft | 488 kts | 338° |
| 2026-04-25 07:53 | 32.74163 | 130.03546 | 27949 ft | 478 kts | 338° |
| 2026-04-25 07:54 | 32.77349 | 130.02742 | 27353 ft | 469 kts | 339° |
| 2026-04-25 07:54 | 32.80546 | 130.01932 | 26749 ft | 460 kts | 339° |
| 2026-04-25 07:54 | 32.83653 | 130.01143 | 26142 ft | 452 kts | 339° |
| 2026-04-25 07:54 | 32.86657 | 130.00378 | 25564 ft | 446 kts | 340° |
| 2026-04-25 07:55 | 32.89721 | 129.99591 | 24975 ft | 458 kts | 341° |
| 2026-04-25 07:55 | 32.92881 | 129.98781 | 24330 ft | 459 kts | 341° |
| 2026-04-25 07:55 | 32.95970 | 129.97994 | 23718 ft | 456 kts | 342° |
| 2026-04-25 07:55 | 32.99053 | 129.97206 | 23062 ft | 452 kts | 342° |
| 2026-04-25 07:56 | 33.02128 | 129.96420 | 22412 ft | 448 kts | 343° |
| 2026-04-25 07:56 | 33.05131 | 129.95653 | 21771 ft | 443 kts | 343° |
| 2026-04-25 07:56 | 33.08149 | 129.94881 | 21124 ft | 439 kts | 343° |
| 2026-04-25 07:56 | 33.11097 | 129.94125 | 20494 ft | 434 kts | 343° |
| 2026-04-25 07:57 | 33.14035 | 129.93372 | 19837 ft | 430 kts | 344° |
| 2026-04-25 07:57 | 33.16948 | 129.92624 | 19191 ft | 425 kts | 344° |
| 2026-04-25 07:57 | 33.19835 | 129.91882 | 18543 ft | 421 kts | 345° |
| 2026-04-25 07:57 | 33.22673 | 129.91153 | 17899 ft | 416 kts | 345° |
| 2026-04-25 07:58 | 33.25474 | 129.90433 | 17261 ft | 412 kts | 345° |
| 2026-04-25 07:58 | 33.28285 | 129.89710 | 16609 ft | 408 kts | 346° |
| 2026-04-25 07:58 | 33.31036 | 129.89002 | 15953 ft | 405 kts | 346° |
| 2026-04-25 07:58 | 33.33778 | 129.88295 | 15323 ft | 401 kts | 346° |
| 2026-04-25 07:59 | 33.36503 | 129.87592 | 14662 ft | 397 kts | 347° |
| 2026-04-25 07:59 | 33.39161 | 129.86906 | 14031 ft | 394 kts | 347° |
| 2026-04-25 07:59 | 33.41851 | 129.86212 | 13396 ft | 391 kts | 347° |
| 2026-04-25 07:59 | 33.44488 | 129.85533 | 12733 ft | 388 kts | 348° |
| 2026-04-25 08:00 | 33.47153 | 129.85178 | 12080 ft | 384 kts | 359° |
| 2026-04-25 08:00 | 33.49796 | 129.85440 | 11459 ft | 380 kts | 11° |
| 2026-04-25 08:00 | 33.52325 | 129.86214 | 10890 ft | 374 kts | 17° |
| 2026-04-25 08:00 | 33.54763 | 129.87067 | 10750 ft | 353 kts | 18° |
| 2026-04-25 08:01 | 33.57062 | 129.87875 | 10695 ft | 331 kts | 18° |
| 2026-04-25 08:01 | 33.59211 | 129.88635 | 10572 ft | 314 kts | 18° |
| 2026-04-25 08:01 | 33.61247 | 129.89359 | 10450 ft | 299 kts | 18° |
| 2026-04-25 08:01 | 33.63202 | 129.90056 | 10324 ft | 286 kts | 19° |
| 2026-04-25 08:02 | 33.65064 | 129.90721 | 10187 ft | 274 kts | 19° |
| 2026-04-25 08:02 | 33.66871 | 129.91368 | 10046 ft | 280 kts | 19° |
| 2026-04-25 08:02 | 33.68790 | 129.92058 | 9692 ft | 288 kts | 19° |
| 2026-04-25 08:02 | 33.70716 | 129.92746 | 9315 ft | 288 kts | 19° |
| 2026-04-25 08:03 | 33.72628 | 129.93430 | 9142 ft | 279 kts | 19° |
| 2026-04-25 08:03 | 33.74411 | 129.94066 | 9094 ft | 262 kts | 19° |
| 2026-04-25 08:03 | 33.76110 | 129.94673 | 9078 ft | 246 kts | 20° |
| 2026-04-25 08:03 | 33.77755 | 129.95222 | 8838 ft | 243 kts | 12° |
| 2026-04-25 08:04 | 33.79439 | 129.95433 | 8513 ft | 244 kts | 7° |
| 2026-04-25 08:04 | 33.81118 | 129.95566 | 8168 ft | 243 kts | 7° |
| 2026-04-25 08:04 | 33.82816 | 129.95700 | 7702 ft | 246 kts | 8° |
| 2026-04-25 08:04 | 33.84444 | 129.96223 | 7490 ft | 236 kts | 32° |
| 2026-04-25 08:05 | 33.85693 | 129.97444 | 7177 ft | 231 kts | 55° |
| 2026-04-25 08:05 | 33.86407 | 129.99130 | 6902 ft | 225 kts | 78° |
| 2026-04-25 08:05 | 33.86503 | 130.00977 | 6680 ft | 223 kts | 100° |
| 2026-04-25 08:05 | 33.86161 | 130.02930 | 6630 ft | 246 kts | 104° |
| 2026-04-25 08:06 | 33.85739 | 130.04930 | 6479 ft | 250 kts | 105° |
| 2026-04-25 08:06 | 33.85292 | 130.06929 | 6197 ft | 246 kts | 105° |
| 2026-04-25 08:06 | 33.84848 | 130.08888 | 5642 ft | 246 kts | 105° |
| 2026-04-25 08:06 | 33.84401 | 130.10867 | 5111 ft | 244 kts | 105° |
| 2026-04-25 08:07 | 33.83954 | 130.12836 | 4639 ft | 243 kts | 105° |
| 2026-04-25 08:07 | 33.83510 | 130.14792 | 4212 ft | 247 kts | 105° |
| 2026-04-25 08:07 | 33.83057 | 130.16791 | 3874 ft | 247 kts | 105° |
| 2026-04-25 08:07 | 33.82605 | 130.18780 | 3597 ft | 244 kts | 105° |
| 2026-04-25 08:08 | 33.82163 | 130.20725 | 3341 ft | 241 kts | 104° |
| 2026-04-25 08:08 | 33.81726 | 130.22644 | 3089 ft | 238 kts | 105° |
| 2026-04-25 08:08 | 33.81291 | 130.24556 | 2830 ft | 235 kts | 105° |
| 2026-04-25 08:08 | 33.80866 | 130.26424 | 2587 ft | 232 kts | 105° |
| 2026-04-25 08:09 | 33.80440 | 130.28290 | 2343 ft | 230 kts | 105° |
| 2026-04-25 08:09 | 33.79847 | 130.30058 | 2097 ft | 227 kts | 120° |
| 2026-04-25 08:09 | 33.78718 | 130.31360 | 2012 ft | 232 kts | 144° |
| 2026-04-25 08:09 | 33.77296 | 130.32371 | 2008 ft | 237 kts | 147° |
| 2026-04-25 08:10 | 33.75856 | 130.33344 | 2012 ft | 239 kts | 147° |
| 2026-04-25 08:10 | 33.74407 | 130.34317 | 2009 ft | 235 kts | 147° |
| 2026-04-25 08:10 | 33.73031 | 130.35237 | 2023 ft | 215 kts | 147° |
| 2026-04-25 08:10 | 33.71787 | 130.36072 | 2000 ft | 190 kts | 147° |
| 2026-04-25 08:11 | 33.70712 | 130.36803 | 2004 ft | 171 kts | 146° |
| 2026-04-25 08:11 | 33.69690 | 130.37505 | 2008 ft | 165 kts | 146° |
| 2026-04-25 08:11 | 33.68694 | 130.38188 | 2004 ft | 167 kts | 146° |
| 2026-04-25 08:11 | 33.67678 | 130.38881 | 1784 ft | 168 kts | 147° |
| 2026-04-25 08:12 | 33.66718 | 130.39535 | 1581 ft | 144 kts | 147° |
| 2026-04-25 08:12 | 33.65882 | 130.40108 | 1408 ft | 133 kts | 147° |
| 2026-04-25 08:12 | 33.65120 | 130.40625 | 1256 ft | 122 kts | 148° |
| 2026-04-25 08:12 | 33.64354 | 130.41148 | 1105 ft | 128 kts | 148° |
| 2026-04-25 08:13 | 33.63585 | 130.41673 | 934 ft | 127 kts | 149° |
| 2026-04-25 08:13 | 33.62807 | 130.42204 | 762 ft | 129 kts | 150° |
| 2026-04-25 08:13 | 33.62028 | 130.42734 | 594 ft | 129 kts | 150° |
| 2026-04-25 08:14 | 33.60429 | 130.43822 | 269 ft | 135 kts | 153° |
| 2026-04-25 08:14 | 33.59616 | 130.44376 | 89 ft | 135 kts | 152° |
| 2026-04-25 08:14 | 33.58858 | 130.44890 | 51 ft | 110 kts | 151° |
| 2026-04-25 08:14 | 33.58298 | 130.45273 | 51 ft | 74 kts | 150° |
| 2026-04-25 08:15 | 33.57956 | 130.45506 | 51 ft | 41 kts | 150° |
| 2026-04-25 08:15 | 33.57732 | 130.45660 | 51 ft | 23 kts | 149° |
| 2026-04-25 08:15 | 33.57669 | 130.45756 | 51 ft | 14 kts | 84° |
| 2026-04-25 08:15 | 33.57729 | 130.45857 | 51 ft | 15 kts | 21° |
| 2026-04-25 08:16 | 33.57833 | 130.45821 | 51 ft | 16 kts | 329° |
| 2026-04-25 08:16 | 33.57935 | 130.45750 | 51 ft | 17 kts | 329° |
| 2026-04-25 08:16 | 33.58045 | 130.45674 | 51 ft | 18 kts | 330° |
| 2026-04-25 08:16 | 33.58159 | 130.45596 | 51 ft | 19 kts | 329° |
| 2026-04-25 08:17 | 33.58278 | 130.45514 | 51 ft | 20 kts | 327° |
| 2026-04-25 08:17 | 33.58399 | 130.45432 | 51 ft | 19 kts | 330° |
| 2026-04-25 08:17 | 33.58514 | 130.45354 | 51 ft | 19 kts | 330° |
| 2026-04-25 08:17 | 33.58633 | 130.45273 | 51 ft | 19 kts | 329° |
| 2026-04-25 08:18 | 33.58754 | 130.45189 | 51 ft | 20 kts | 330° |
| 2026-04-25 08:18 | 33.58880 | 130.45103 | 51 ft | 21 kts | 330° |
| 2026-04-25 08:18 | 33.59012 | 130.45013 | 51 ft | 22 kts | 329° |
| 2026-04-25 08:18 | 33.59146 | 130.44920 | 51 ft | 22 kts | 331° |
| 2026-04-25 08:19 | 33.59282 | 130.44855 | 51 ft | 20 kts | 354° |
| 2026-04-25 08:19 | 33.59399 | 130.44836 | 51 ft | 12 kts | 336° |
| 2026-04-25 08:19 | 33.59477 | 130.44786 | 51 ft | 10 kts | 331° |
| 2026-04-25 08:19 | 33.59524 | 130.44753 | 51 ft | 3 kts | 329° |
| 2026-04-25 08:20 | 33.59541 | 130.44748 | 51 ft | 2 kts | 9° |
| 2026-04-25 08:20 | 33.59556 | 130.44760 | 51 ft | 3 kts | 52° |
| 2026-04-25 08:20 | 33.59571 | 130.44792 | 51 ft | 5 kts | 60° |
| 2026-04-25 08:20 | 33.59587 | 130.44826 | 51 ft | 0 kts | 60° |